Airfield :
LOGIN :

Register | Disclaimer

   EN    FR    IT 

 










Legend :    VFR   Marginal VFR   IFR   Intensive IFR   Very Intensive IFR
Visi :
Ceiling :
>= 8 km
>= 3000ft
5 to 8 km
1000 to 3000 ft
1500m to 5 km
500 to 1000 ft
800 to 1500m
200 to 500 ft
< 800m
< 200 ft
Symbols :   Thunderstorms  Fog  Heavy snow  Heavy precipitations  Wind > 20 kt
SIGMETs :     Misc.  Thunderstorms  Icing  Turbulence  Mountain Waves  Volcanic Ashes







- Airport Elevation : 370 ft


EBBE - Beauvechain AB

CURRENT METAR :
  • 190025Z AUTO 13003KT 9999 FEW170/// 20/13 Q1009 BLU

EXPIRED METARs :
  • 182355Z AUTO 13004KT 9999 NCD 20/13 Q1010 BLU
  • 182325Z AUTO VRB02KT 9999 NCD 21/14 Q1010 BLU
  • 182255Z AUTO 14003KT 9999 NCD 21/14 Q1010 BLU
  • 182225Z AUTO 15005KT 9999 NCD 21/15 Q1010 BLU
  • 182155Z AUTO 14005KT 9999 NCD 21/15 Q1011 BLU
  • 182125Z AUTO 12003KT 9999 NCD 22/15 Q1011 BLU

TAF TAF EBBE
Valid from the 18 at 19:00 until the 19 at 07:00 UTC


181541Z 1819/1907 07005KT 9999 SCT100 BKN130
BECMG 1822/1900 12007KT
BECMG 1903/1905 20012KT BKN080
No reported NOTAMs for that airfield.
1 SIGMET reported for the Brussels FIR (EBBU) :
 
Embedded thunderstorms
EBBU SIGMET 01 VALID 182320/190220 EBBR
EBBU BRUSSELS FIR EMBD TS OBS WI N5130 E00200 - N5107 E00200 - N5042 E00255 - N5126 E00255 - N5130 E00200 TOP FL320 MOV NE 30KT NC=



MET'MAP, your aeronautical weather chart ! - Copyright ORBIFLY December 2007 - Disclaimer

ORBIFLY MET'MAP TEAM :

Programming & Development : Alexandra Zaïnal
Concept & Development : Baudouin d'Aumeries
Co-Development & Prog : Marc-Olivier Méhu
Technical & hardware support : Manuel Goepfert

Contact : metmap@orbifly.com




SOURCES & CREDITS :

   NOAA